sensor_id;sensor_type;location;lat;lon;timestamp;P1;durP1;ratioP1;P2;durP2;ratioP2
48588;SDS011;34369;51.174;6.738;2022-09-16T00:01:09;23.63;;;21.90;;
48588;SDS011;34369;51.174;6.738;2022-09-16T00:03:44;24.73;;;22.83;;
48588;SDS011;34369;51.174;6.738;2022-09-16T00:06:19;24.17;;;22.38;;
48588;SDS011;34369;51.174;6.738;2022-09-16T00:08:54;23.00;;;21.25;;
48588;SDS011;34369;51.174;6.738;2022-09-16T00:11:30;24.50;;;22.65;;
48588;SDS011;34369;51.174;6.738;2022-09-16T00:14:04;24.30;;;22.40;;
48588;SDS011;34369;51.174;6.738;2022-09-16T00:16:38;24.13;;;22.43;;
48588;SDS011;34369;51.174;6.738;2022-09-16T00:19:10;24.20;;;22.50;;
48588;SDS011;34369;51.174;6.738;2022-09-16T00:21:42;25.00;;;23.20;;
48588;SDS011;34369;51.174;6.738;2022-09-16T00:24:21;24.10;;;22.20;;
48588;SDS011;34369;51.174;6.738;2022-09-16T00:26:52;23.67;;;21.88;;
48588;SDS011;34369;51.174;6.738;2022-09-16T00:29:24;25.15;;;23.20;;
48588;SDS011;34369;51.174;6.738;2022-09-16T00:32:01;23.52;;;21.83;;
48588;SDS011;34369;51.174;6.738;2022-09-16T00:34:42;24.80;;;22.95;;
48588;SDS011;34369;51.174;6.738;2022-09-16T00:37:15;24.05;;;22.25;;
48588;SDS011;34369;51.174;6.738;2022-09-16T00:39:48;24.77;;;22.93;;
48588;SDS011;34369;51.174;6.738;2022-09-16T00:42:20;23.77;;;22.00;;
48588;SDS011;34369;51.174;6.738;2022-09-16T00:44:54;24.47;;;22.67;;
48588;SDS011;34369;51.174;6.738;2022-09-16T00:47:31;23.67;;;21.97;;
48588;SDS011;34369;51.174;6.738;2022-09-16T00:50:10;24.03;;;22.33;;
48588;SDS011;34369;51.174;6.738;2022-09-16T00:52:48;24.70;;;22.90;;
48588;SDS011;34369;51.174;6.738;2022-09-16T00:55:26;24.30;;;22.37;;
48588;SDS011;34369;51.174;6.738;2022-09-16T00:58:04;26.90;;;25.00;;
48588;SDS011;34369;51.174;6.738;2022-09-16T01:00:47;25.13;;;23.30;;
48588;SDS011;34369;51.174;6.738;2022-09-16T01:03:21;25.40;;;23.57;;
48588;SDS011;34369;51.174;6.738;2022-09-16T01:05:54;25.07;;;23.27;;
48588;SDS011;34369;51.174;6.738;2022-09-16T01:08:27;24.58;;;22.88;;
48588;SDS011;34369;51.174;6.738;2022-09-16T01:10:59;25.47;;;23.57;;
48588;SDS011;34369;51.174;6.738;2022-09-16T01:13:33;24.20;;;22.47;;
48588;SDS011;34369;51.174;6.738;2022-09-16T01:16:07;25.67;;;23.77;;
48588;SDS011;34369;51.174;6.738;2022-09-16T01:18:45;24.40;;;22.52;;
48588;SDS011;34369;51.174;6.738;2022-09-16T01:21:27;24.90;;;22.90;;
48588;SDS011;34369;51.174;6.738;2022-09-16T01:27:19;24.60;;;22.70;;
48588;SDS011;34369;51.174;6.738;2022-09-16T01:33:16;25.60;;;23.80;;
48588;SDS011;34369;51.174;6.738;2022-09-16T01:36:06;26.43;;;24.43;;
48588;SDS011;34369;51.174;6.738;2022-09-16T01:39:00;25.63;;;23.83;;
48588;SDS011;34369;51.174;6.738;2022-09-16T01:41:44;25.13;;;23.23;;
48588;SDS011;34369;51.174;6.738;2022-09-16T01:44:33;25.10;;;23.30;;
48588;SDS011;34369;51.174;6.738;2022-09-16T01:47:17;27.00;;;25.10;;
48588;SDS011;34369;51.174;6.738;2022-09-16T01:49:59;24.40;;;22.50;;
48588;SDS011;34369;51.174;6.738;2022-09-16T01:52:41;25.47;;;23.57;;
48588;SDS011;34369;51.174;6.738;2022-09-16T01:55:24;25.07;;;23.20;;
48588;SDS011;34369;51.174;6.738;2022-09-16T01:58:03;25.10;;;23.30;;
48588;SDS011;34369;51.174;6.738;2022-09-16T02:00:43;24.33;;;22.53;;
48588;SDS011;34369;51.174;6.738;2022-09-16T02:03:18;24.98;;;22.95;;
48588;SDS011;34369;51.174;6.738;2022-09-16T02:05:55;26.23;;;24.37;;
48588;SDS011;34369;51.174;6.738;2022-09-16T02:08:31;24.67;;;22.77;;
48588;SDS011;34369;51.174;6.738;2022-09-16T02:11:11;26.13;;;24.23;;
48588;SDS011;34369;51.174;6.738;2022-09-16T02:13:48;26.00;;;23.87;;
48588;SDS011;34369;51.174;6.738;2022-09-16T02:16:24;24.50;;;22.80;;
48588;SDS011;34369;51.174;6.738;2022-09-16T02:19:07;25.33;;;23.50;;
48588;SDS011;34369;51.174;6.738;2022-09-16T02:21:42;25.83;;;23.83;;
48588;SDS011;34369;51.174;6.738;2022-09-16T02:24:16;26.07;;;23.97;;
48588;SDS011;34369;51.174;6.738;2022-09-16T02:26:53;25.85;;;23.95;;
48588;SDS011;34369;51.174;6.738;2022-09-16T02:29:31;24.83;;;22.93;;
48588;SDS011;34369;51.174;6.738;2022-09-16T02:32:17;26.27;;;24.33;;
48588;SDS011;34369;51.174;6.738;2022-09-16T02:34:51;25.90;;;24.00;;
48588;SDS011;34369;51.174;6.738;2022-09-16T02:37:27;25.23;;;23.23;;
48588;SDS011;34369;51.174;6.738;2022-09-16T02:40:03;24.47;;;22.77;;
48588;SDS011;34369;51.174;6.738;2022-09-16T02:42:41;24.03;;;22.23;;
48588;SDS011;34369;51.174;6.738;2022-09-16T02:45:14;25.43;;;23.27;;
48588;SDS011;34369;51.174;6.738;2022-09-16T02:47:49;24.10;;;22.33;;
48588;SDS011;34369;51.174;6.738;2022-09-16T02:50:32;25.03;;;23.13;;
48588;SDS011;34369;51.174;6.738;2022-09-16T02:55:49;25.45;;;23.20;;
48588;SDS011;34369;51.174;6.738;2022-09-16T02:58:25;24.20;;;22.27;;
48588;SDS011;34369;51.174;6.738;2022-09-16T03:00:58;25.70;;;23.80;;
48588;SDS011;34369;51.174;6.738;2022-09-16T03:03:30;24.20;;;22.23;;
48588;SDS011;34369;51.174;6.738;2022-09-16T03:06:12;25.30;;;23.20;;
48588;SDS011;34369;51.174;6.738;2022-09-16T03:08:50;26.13;;;24.03;;
48588;SDS011;34369;51.174;6.738;2022-09-16T03:11:28;24.27;;;22.30;;
48588;SDS011;34369;51.174;6.738;2022-09-16T03:14:21;26.45;;;24.30;;
48588;SDS011;34369;51.174;6.738;2022-09-16T03:17:12;24.60;;;22.80;;
48588;SDS011;34369;51.174;6.738;2022-09-16T03:19:58;24.70;;;22.80;;
48588;SDS011;34369;51.174;6.738;2022-09-16T03:22:44;26.40;;;24.30;;
48588;SDS011;34369;51.174;6.738;2022-09-16T03:25:23;26.33;;;24.33;;
48588;SDS011;34369;51.174;6.738;2022-09-16T03:28:14;26.23;;;24.13;;
48588;SDS011;34369;51.174;6.738;2022-09-16T03:30:50;24.83;;;23.10;;
48588;SDS011;34369;51.174;6.738;2022-09-16T03:33:31;24.80;;;22.70;;
48588;SDS011;34369;51.174;6.738;2022-09-16T03:36:08;24.80;;;22.90;;
48588;SDS011;34369;51.174;6.738;2022-09-16T03:38:47;26.13;;;24.10;;
48588;SDS011;34369;51.174;6.738;2022-09-16T03:41:20;25.33;;;23.53;;
48588;SDS011;34369;51.174;6.738;2022-09-16T03:43:53;25.23;;;23.43;;
48588;SDS011;34369;51.174;6.738;2022-09-16T03:46:26;25.03;;;23.10;;
48588;SDS011;34369;51.174;6.738;2022-09-16T03:48:58;26.97;;;24.90;;
48588;SDS011;34369;51.174;6.738;2022-09-16T03:51:30;25.03;;;23.07;;
48588;SDS011;34369;51.174;6.738;2022-09-16T03:54:04;24.47;;;22.57;;
48588;SDS011;34369;51.174;6.738;2022-09-16T03:56:36;26.33;;;24.33;;
48588;SDS011;34369;51.174;6.738;2022-09-16T03:59:08;26.07;;;23.97;;
48588;SDS011;34369;51.174;6.738;2022-09-16T04:01:40;25.70;;;23.80;;
48588;SDS011;34369;51.174;6.738;2022-09-16T04:04:11;25.50;;;23.47;;
48588;SDS011;34369;51.174;6.738;2022-09-16T04:06:44;27.00;;;24.97;;
48588;SDS011;34369;51.174;6.738;2022-09-16T04:09:17;25.50;;;23.60;;
48588;SDS011;34369;51.174;6.738;2022-09-16T04:11:49;24.77;;;22.77;;
48588;SDS011;34369;51.174;6.738;2022-09-16T04:14:21;24.87;;;22.97;;
48588;SDS011;34369;51.174;6.738;2022-09-16T04:16:54;25.27;;;23.47;;
48588;SDS011;34369;51.174;6.738;2022-09-16T04:19:26;26.00;;;23.97;;
48588;SDS011;34369;51.174;6.738;2022-09-16T04:21:58;25.30;;;23.60;;
48588;SDS011;34369;51.174;6.738;2022-09-16T04:24:31;26.75;;;24.80;;
48588;SDS011;34369;51.174;6.738;2022-09-16T04:27:03;26.75;;;24.50;;
48588;SDS011;34369;51.174;6.738;2022-09-16T04:29:35;25.40;;;23.47;;
48588;SDS011;34369;51.174;6.738;2022-09-16T04:32:07;25.40;;;23.50;;
48588;SDS011;34369;51.174;6.738;2022-09-16T04:34:40;25.15;;;23.35;;
48588;SDS011;34369;51.174;6.738;2022-09-16T04:37:12;24.93;;;23.03;;
48588;SDS011;34369;51.174;6.738;2022-09-16T04:39:46;26.33;;;24.33;;
48588;SDS011;34369;51.174;6.738;2022-09-16T04:42:18;26.17;;;24.17;;
48588;SDS011;34369;51.174;6.738;2022-09-16T04:44:49;26.40;;;24.42;;
48588;SDS011;34369;51.174;6.738;2022-09-16T04:47:21;26.35;;;24.35;;
48588;SDS011;34369;51.174;6.738;2022-09-16T04:49:53;25.20;;;23.20;;
48588;SDS011;34369;51.174;6.738;2022-09-16T04:52:25;26.02;;;23.77;;
48588;SDS011;34369;51.174;6.738;2022-09-16T04:55:02;24.88;;;23.10;;
48588;SDS011;34369;51.174;6.738;2022-09-16T04:57:34;25.15;;;23.10;;
48588;SDS011;34369;51.174;6.738;2022-09-16T05:00:07;25.57;;;23.63;;
48588;SDS011;34369;51.174;6.738;2022-09-16T05:02:42;25.35;;;23.55;;
48588;SDS011;34369;51.174;6.738;2022-09-16T05:05:15;25.60;;;23.60;;
48588;SDS011;34369;51.174;6.738;2022-09-16T05:07:47;26.40;;;24.50;;
48588;SDS011;34369;51.174;6.738;2022-09-16T05:10:20;26.17;;;23.93;;
48588;SDS011;34369;51.174;6.738;2022-09-16T05:12:52;25.43;;;23.40;;
48588;SDS011;34369;51.174;6.738;2022-09-16T05:15:25;26.00;;;24.00;;
48588;SDS011;34369;51.174;6.738;2022-09-16T05:17:57;26.33;;;24.40;;
48588;SDS011;34369;51.174;6.738;2022-09-16T05:20:30;25.17;;;23.27;;
48588;SDS011;34369;51.174;6.738;2022-09-16T05:23:04;24.80;;;23.00;;
48588;SDS011;34369;51.174;6.738;2022-09-16T05:25:41;24.27;;;22.45;;
48588;SDS011;34369;51.174;6.738;2022-09-16T05:28:14;25.90;;;23.80;;
48588;SDS011;34369;51.174;6.738;2022-09-16T05:30:47;26.17;;;24.20;;
48588;SDS011;34369;51.174;6.738;2022-09-16T05:33:20;25.63;;;23.63;;
48588;SDS011;34369;51.174;6.738;2022-09-16T05:35:53;26.27;;;24.20;;
48588;SDS011;34369;51.174;6.738;2022-09-16T05:38:27;25.73;;;23.73;;
48588;SDS011;34369;51.174;6.738;2022-09-16T05:41:01;25.67;;;23.67;;
48588;SDS011;34369;51.174;6.738;2022-09-16T05:43:34;25.50;;;23.60;;
48588;SDS011;34369;51.174;6.738;2022-09-16T05:46:07;27.30;;;25.40;;
48588;SDS011;34369;51.174;6.738;2022-09-16T05:48:44;25.50;;;23.60;;
48588;SDS011;34369;51.174;6.738;2022-09-16T05:51:18;24.67;;;22.87;;
48588;SDS011;34369;51.174;6.738;2022-09-16T05:53:53;26.17;;;24.10;;
48588;SDS011;34369;51.174;6.738;2022-09-16T05:56:27;24.47;;;22.63;;
48588;SDS011;34369;51.174;6.738;2022-09-16T05:59:00;25.25;;;23.45;;
48588;SDS011;34369;51.174;6.738;2022-09-16T06:01:34;25.33;;;23.17;;
48588;SDS011;34369;51.174;6.738;2022-09-16T06:04:06;26.60;;;24.70;;
48588;SDS011;34369;51.174;6.738;2022-09-16T06:06:43;24.98;;;22.98;;
48588;SDS011;34369;51.174;6.738;2022-09-16T06:09:17;27.10;;;24.93;;
48588;SDS011;34369;51.174;6.738;2022-09-16T06:11:52;24.83;;;22.88;;
48588;SDS011;34369;51.174;6.738;2022-09-16T06:14:24;25.73;;;23.60;;
48588;SDS011;34369;51.174;6.738;2022-09-16T06:16:57;25.63;;;23.53;;
48588;SDS011;34369;51.174;6.738;2022-09-16T06:19:29;26.73;;;24.63;;
48588;SDS011;34369;51.174;6.738;2022-09-16T06:22:01;25.43;;;23.53;;
48588;SDS011;34369;51.174;6.738;2022-09-16T06:24:33;26.30;;;24.23;;
48588;SDS011;34369;51.174;6.738;2022-09-16T06:27:07;26.47;;;24.07;;
48588;SDS011;34369;51.174;6.738;2022-09-16T06:29:39;24.65;;;22.73;;
48588;SDS011;34369;51.174;6.738;2022-09-16T06:32:11;25.67;;;23.57;;
48588;SDS011;34369;51.174;6.738;2022-09-16T06:34:43;24.45;;;22.55;;
48588;SDS011;34369;51.174;6.738;2022-09-16T06:37:15;25.00;;;23.00;;
48588;SDS011;34369;51.174;6.738;2022-09-16T06:39:48;25.52;;;23.40;;
48588;SDS011;34369;51.174;6.738;2022-09-16T06:42:22;24.33;;;22.30;;
48588;SDS011;34369;51.174;6.738;2022-09-16T06:44:54;25.05;;;23.25;;
48588;SDS011;34369;51.174;6.738;2022-09-16T06:47:27;24.90;;;22.90;;
48588;SDS011;34369;51.174;6.738;2022-09-16T06:50:02;25.30;;;23.40;;
48588;SDS011;34369;51.174;6.738;2022-09-16T06:52:36;25.40;;;23.48;;
48588;SDS011;34369;51.174;6.738;2022-09-16T06:55:08;25.27;;;23.27;;
48588;SDS011;34369;51.174;6.738;2022-09-16T06:57:41;25.80;;;23.80;;
48588;SDS011;34369;51.174;6.738;2022-09-16T07:00:13;25.63;;;23.48;;
48588;SDS011;34369;51.174;6.738;2022-09-16T07:02:46;25.75;;;23.88;;
48588;SDS011;34369;51.174;6.738;2022-09-16T07:05:18;25.73;;;23.52;;
48588;SDS011;34369;51.174;6.738;2022-09-16T07:07:50;24.63;;;22.60;;
48588;SDS011;34369;51.174;6.738;2022-09-16T07:10:22;25.30;;;23.30;;
48588;SDS011;34369;51.174;6.738;2022-09-16T07:12:56;25.40;;;23.38;;
48588;SDS011;34369;51.174;6.738;2022-09-16T07:15:28;25.48;;;23.55;;
48588;SDS011;34369;51.174;6.738;2022-09-16T07:18:01;24.25;;;22.35;;
48588;SDS011;34369;51.174;6.738;2022-09-16T07:20:33;24.95;;;22.80;;
48588;SDS011;34369;51.174;6.738;2022-09-16T07:23:06;23.98;;;22.08;;
48588;SDS011;34369;51.174;6.738;2022-09-16T07:25:38;24.90;;;22.90;;
48588;SDS011;34369;51.174;6.738;2022-09-16T07:28:12;24.38;;;22.58;;
48588;SDS011;34369;51.174;6.738;2022-09-16T07:30:44;24.00;;;22.25;;
48588;SDS011;34369;51.174;6.738;2022-09-16T07:33:16;25.40;;;23.13;;
48588;SDS011;34369;51.174;6.738;2022-09-16T07:35:48;24.48;;;22.38;;
48588;SDS011;34369;51.174;6.738;2022-09-16T07:38:20;24.33;;;22.52;;
48588;SDS011;34369;51.174;6.738;2022-09-16T07:40:52;23.77;;;22.08;;
48588;SDS011;34369;51.174;6.738;2022-09-16T07:43:25;24.15;;;22.27;;
48588;SDS011;34369;51.174;6.738;2022-09-16T07:45:58;23.02;;;20.92;;
48588;SDS011;34369;51.174;6.738;2022-09-16T07:48:31;23.85;;;21.95;;
48588;SDS011;34369;51.174;6.738;2022-09-16T07:51:05;23.85;;;21.95;;
48588;SDS011;34369;51.174;6.738;2022-09-16T07:53:41;23.42;;;21.58;;
48588;SDS011;34369;51.174;6.738;2022-09-16T07:56:15;23.80;;;21.85;;
48588;SDS011;34369;51.174;6.738;2022-09-16T07:58:51;22.90;;;21.00;;
48588;SDS011;34369;51.174;6.738;2022-09-16T08:01:24;22.92;;;21.23;;
48588;SDS011;34369;51.174;6.738;2022-09-16T08:03:57;23.90;;;21.80;;
48588;SDS011;34369;51.174;6.738;2022-09-16T08:06:31;23.33;;;21.40;;
48588;SDS011;34369;51.174;6.738;2022-09-16T08:09:04;23.38;;;21.52;;
48588;SDS011;34369;51.174;6.738;2022-09-16T08:11:37;22.92;;;21.02;;
48588;SDS011;34369;51.174;6.738;2022-09-16T08:14:10;22.20;;;20.40;;
48588;SDS011;34369;51.174;6.738;2022-09-16T08:16:42;22.55;;;20.73;;
48588;SDS011;34369;51.174;6.738;2022-09-16T08:19:15;22.98;;;21.15;;
48588;SDS011;34369;51.174;6.738;2022-09-16T08:21:48;22.13;;;20.42;;
48588;SDS011;34369;51.174;6.738;2022-09-16T08:24:21;21.92;;;20.23;;
48588;SDS011;34369;51.174;6.738;2022-09-16T08:26:53;22.48;;;20.88;;
48588;SDS011;34369;51.174;6.738;2022-09-16T08:29:27;22.70;;;21.02;;
48588;SDS011;34369;51.174;6.738;2022-09-16T08:31:59;23.08;;;21.27;;
48588;SDS011;34369;51.174;6.738;2022-09-16T08:34:31;22.67;;;20.45;;
48588;SDS011;34369;51.174;6.738;2022-09-16T08:37:04;21.38;;;19.75;;
48588;SDS011;34369;51.174;6.738;2022-09-16T08:39:36;21.60;;;19.90;;
48588;SDS011;34369;51.174;6.738;2022-09-16T08:42:26;22.23;;;20.63;;
48588;SDS011;34369;51.174;6.738;2022-09-16T08:45:16;22.02;;;20.23;;
48588;SDS011;34369;51.174;6.738;2022-09-16T08:48:00;22.20;;;20.40;;
48588;SDS011;34369;51.174;6.738;2022-09-16T08:50:57;22.08;;;20.15;;
48588;SDS011;34369;51.174;6.738;2022-09-16T08:53:32;21.98;;;20.27;;
48588;SDS011;34369;51.174;6.738;2022-09-16T08:56:09;21.73;;;19.98;;
48588;SDS011;34369;51.174;6.738;2022-09-16T08:58:45;21.67;;;19.95;;
48588;SDS011;34369;51.174;6.738;2022-09-16T09:01:25;20.75;;;19.17;;
48588;SDS011;34369;51.174;6.738;2022-09-16T09:04:04;20.42;;;18.77;;
48588;SDS011;34369;51.174;6.738;2022-09-16T09:06:43;20.65;;;18.95;;
48588;SDS011;34369;51.174;6.738;2022-09-16T09:09:35;19.73;;;18.02;;
48588;SDS011;34369;51.174;6.738;2022-09-16T09:12:23;19.77;;;18.10;;
48588;SDS011;34369;51.174;6.738;2022-09-16T09:15:26;19.63;;;18.13;;
48588;SDS011;34369;51.174;6.738;2022-09-16T09:18:16;19.60;;;18.00;;
48588;SDS011;34369;51.174;6.738;2022-09-16T09:21:08;19.15;;;17.65;;
48588;SDS011;34369;51.174;6.738;2022-09-16T09:23:53;20.13;;;18.20;;
48588;SDS011;34369;51.174;6.738;2022-09-16T09:26:41;19.80;;;18.05;;
48588;SDS011;34369;51.174;6.738;2022-09-16T09:29:29;19.92;;;18.33;;
48588;SDS011;34369;51.174;6.738;2022-09-16T09:32:22;19.02;;;17.52;;
48588;SDS011;34369;51.174;6.738;2022-09-16T09:35:10;19.42;;;17.73;;
48588;SDS011;34369;51.174;6.738;2022-09-16T09:38:11;18.80;;;17.20;;
48588;SDS011;34369;51.174;6.738;2022-09-16T09:41:12;19.70;;;18.08;;
48588;SDS011;34369;51.174;6.738;2022-09-16T09:43:49;19.98;;;18.30;;
48588;SDS011;34369;51.174;6.738;2022-09-16T09:46:27;18.95;;;17.35;;
48588;SDS011;34369;51.174;6.738;2022-09-16T09:49:08;19.60;;;18.00;;
48588;SDS011;34369;51.174;6.738;2022-09-16T09:51:47;19.48;;;17.98;;
48588;SDS011;34369;51.174;6.738;2022-09-16T09:54:25;19.52;;;17.85;;
48588;SDS011;34369;51.174;6.738;2022-09-16T09:57:00;18.48;;;16.90;;
48588;SDS011;34369;51.174;6.738;2022-09-16T09:59:39;19.67;;;18.05;;
48588;SDS011;34369;51.174;6.738;2022-09-16T10:02:19;18.25;;;16.85;;
48588;SDS011;34369;51.174;6.738;2022-09-16T10:04:52;19.42;;;17.90;;
48588;SDS011;34369;51.174;6.738;2022-09-16T10:07:26;19.40;;;17.70;;
48588;SDS011;34369;51.174;6.738;2022-09-16T10:10:00;19.13;;;17.70;;
48588;SDS011;34369;51.174;6.738;2022-09-16T10:12:43;19.85;;;18.25;;
48588;SDS011;34369;51.174;6.738;2022-09-16T10:15:19;19.80;;;18.10;;
48588;SDS011;34369;51.174;6.738;2022-09-16T10:17:53;20.52;;;18.70;;
48588;SDS011;34369;51.174;6.738;2022-09-16T10:20:30;20.23;;;18.63;;
48588;SDS011;34369;51.174;6.738;2022-09-16T10:23:08;20.70;;;19.10;;
48588;SDS011;34369;51.174;6.738;2022-09-16T10:25:43;20.77;;;19.17;;
48588;SDS011;34369;51.174;6.738;2022-09-16T10:28:19;21.30;;;19.67;;
48588;SDS011;34369;51.174;6.738;2022-09-16T10:30:53;20.35;;;18.65;;
48588;SDS011;34369;51.174;6.738;2022-09-16T10:33:28;21.13;;;19.38;;
48588;SDS011;34369;51.174;6.738;2022-09-16T10:36:04;21.73;;;20.00;;
48588;SDS011;34369;51.174;6.738;2022-09-16T10:38:43;20.63;;;19.02;;
48588;SDS011;34369;51.174;6.738;2022-09-16T10:41:22;21.67;;;19.70;;
48588;SDS011;34369;51.174;6.738;2022-09-16T10:43:57;21.08;;;19.42;;
48588;SDS011;34369;51.174;6.738;2022-09-16T10:46:33;21.90;;;20.20;;
48588;SDS011;34369;51.174;6.738;2022-09-16T10:49:08;22.60;;;20.50;;
48588;SDS011;34369;51.174;6.738;2022-09-16T10:51:42;22.10;;;19.90;;
48588;SDS011;34369;51.174;6.738;2022-09-16T10:54:23;22.02;;;20.10;;
48588;SDS011;34369;51.174;6.738;2022-09-16T10:56:58;20.60;;;18.95;;
48588;SDS011;34369;51.174;6.738;2022-09-16T10:59:32;21.60;;;20.00;;
48588;SDS011;34369;51.174;6.738;2022-09-16T11:02:07;20.88;;;19.00;;
48588;SDS011;34369;51.174;6.738;2022-09-16T11:05:11;20.60;;;19.00;;
48588;SDS011;34369;51.174;6.738;2022-09-16T11:07:50;21.75;;;20.08;;
48588;SDS011;34369;51.174;6.738;2022-09-16T11:10:36;21.43;;;19.73;;
48588;SDS011;34369;51.174;6.738;2022-09-16T11:16:30;20.67;;;19.08;;
48588;SDS011;34369;51.174;6.738;2022-09-16T11:19:24;20.20;;;18.70;;
48588;SDS011;34369;51.174;6.738;2022-09-16T11:22:10;22.45;;;20.60;;
48588;SDS011;34369;51.174;6.738;2022-09-16T11:25:15;20.02;;;18.52;;
48588;SDS011;34369;51.174;6.738;2022-09-16T11:28:03;20.35;;;18.75;;
48588;SDS011;34369;51.174;6.738;2022-09-16T11:30:58;20.85;;;19.35;;
48588;SDS011;34369;51.174;6.738;2022-09-16T11:33:44;20.90;;;19.40;;
48588;SDS011;34369;51.174;6.738;2022-09-16T11:39:36;20.00;;;18.50;;
48588;SDS011;34369;51.174;6.738;2022-09-16T11:42:28;20.17;;;18.67;;
48588;SDS011;34369;51.174;6.738;2022-09-16T11:45:09;19.77;;;18.27;;
48588;SDS011;34369;51.174;6.738;2022-09-16T11:48:20;25.05;;;20.20;;
48588;SDS011;34369;51.174;6.738;2022-09-16T11:51:10;20.85;;;19.35;;
48588;SDS011;34369;51.174;6.738;2022-09-16T11:54:03;22.17;;;20.52;;
48588;SDS011;34369;51.174;6.738;2022-09-16T11:56:55;21.95;;;19.95;;
48588;SDS011;34369;51.174;6.738;2022-09-16T11:59:34;21.92;;;20.27;;
48588;SDS011;34369;51.174;6.738;2022-09-16T12:02:13;22.00;;;20.48;;
48588;SDS011;34369;51.174;6.738;2022-09-16T12:04:52;23.20;;;21.60;;
48588;SDS011;34369;51.174;6.738;2022-09-16T12:07:33;23.13;;;21.50;;
48588;SDS011;34369;51.174;6.738;2022-09-16T12:10:11;23.33;;;21.63;;
48588;SDS011;34369;51.174;6.738;2022-09-16T12:12:51;22.85;;;21.17;;
48588;SDS011;34369;51.174;6.738;2022-09-16T12:15:30;23.30;;;21.70;;
48588;SDS011;34369;51.174;6.738;2022-09-16T12:18:09;23.50;;;21.80;;
48588;SDS011;34369;51.174;6.738;2022-09-16T12:20:48;24.40;;;22.70;;
48588;SDS011;34369;51.174;6.738;2022-09-16T12:23:25;24.03;;;22.33;;
48588;SDS011;34369;51.174;6.738;2022-09-16T12:26:06;23.23;;;21.57;;
48588;SDS011;34369;51.174;6.738;2022-09-16T12:28:45;23.13;;;21.48;;
48588;SDS011;34369;51.174;6.738;2022-09-16T12:31:25;22.60;;;20.90;;
48588;SDS011;34369;51.174;6.738;2022-09-16T12:34:07;22.10;;;20.50;;
48588;SDS011;34369;51.174;6.738;2022-09-16T12:36:44;21.90;;;20.30;;
48588;SDS011;34369;51.174;6.738;2022-09-16T12:39:21;21.67;;;20.17;;
48588;SDS011;34369;51.174;6.738;2022-09-16T12:45:09;22.27;;;20.58;;
48588;SDS011;34369;51.174;6.738;2022-09-16T12:48:05;22.08;;;20.58;;
48588;SDS011;34369;51.174;6.738;2022-09-16T12:51:23;22.00;;;20.50;;
48588;SDS011;34369;51.174;6.738;2022-09-16T12:54:49;21.55;;;20.05;;
48588;SDS011;34369;51.174;6.738;2022-09-16T12:57:43;20.92;;;19.42;;
48588;SDS011;34369;51.174;6.738;2022-09-16T13:00:35;21.02;;;19.42;;
48588;SDS011;34369;51.174;6.738;2022-09-16T13:03:15;21.88;;;20.38;;
48588;SDS011;34369;51.174;6.738;2022-09-16T13:05:51;22.45;;;20.75;;
48588;SDS011;34369;51.174;6.738;2022-09-16T13:08:26;21.10;;;19.60;;
48588;SDS011;34369;51.174;6.738;2022-09-16T13:11:01;21.73;;;20.10;;
48588;SDS011;34369;51.174;6.738;2022-09-16T13:13:38;21.40;;;19.80;;
48588;SDS011;34369;51.174;6.738;2022-09-16T13:19:17;21.50;;;19.90;;
48588;SDS011;34369;51.174;6.738;2022-09-16T13:22:14;21.85;;;20.25;;
48588;SDS011;34369;51.174;6.738;2022-09-16T13:24:54;22.13;;;20.40;;
48588;SDS011;34369;51.174;6.738;2022-09-16T13:27:32;21.60;;;20.08;;
48588;SDS011;34369;51.174;6.738;2022-09-16T13:30:12;21.02;;;19.40;;
48588;SDS011;34369;51.174;6.738;2022-09-16T13:33:00;22.20;;;20.50;;
48588;SDS011;34369;51.174;6.738;2022-09-16T13:39:03;21.35;;;19.75;;
48588;SDS011;34369;51.174;6.738;2022-09-16T13:41:41;22.15;;;20.55;;
48588;SDS011;34369;51.174;6.738;2022-09-16T13:44:26;21.98;;;20.33;;
48588;SDS011;34369;51.174;6.738;2022-09-16T13:47:15;21.88;;;20.17;;
48588;SDS011;34369;51.174;6.738;2022-09-16T13:49:59;22.90;;;21.20;;
48588;SDS011;34369;51.174;6.738;2022-09-16T13:52:40;21.52;;;20.00;;
48588;SDS011;34369;51.174;6.738;2022-09-16T13:55:17;21.15;;;19.60;;
48588;SDS011;34369;51.174;6.738;2022-09-16T13:57:57;21.35;;;19.65;;
48588;SDS011;34369;51.174;6.738;2022-09-16T14:00:34;20.13;;;18.63;;
48588;SDS011;34369;51.174;6.738;2022-09-16T14:03:40;21.30;;;19.70;;
48588;SDS011;34369;51.174;6.738;2022-09-16T14:06:28;20.33;;;18.83;;
48588;SDS011;34369;51.174;6.738;2022-09-16T14:09:27;20.92;;;19.33;;
48588;SDS011;34369;51.174;6.738;2022-09-16T14:12:10;21.10;;;19.50;;
48588;SDS011;34369;51.174;6.738;2022-09-16T14:14:52;20.42;;;18.92;;
48588;SDS011;34369;51.174;6.738;2022-09-16T14:17:37;21.88;;;20.27;;
48588;SDS011;34369;51.174;6.738;2022-09-16T14:20:12;20.70;;;19.20;;
48588;SDS011;34369;51.174;6.738;2022-09-16T14:22:48;21.50;;;19.88;;
48588;SDS011;34369;51.174;6.738;2022-09-16T14:25:32;21.52;;;19.83;;
48588;SDS011;34369;51.174;6.738;2022-09-16T14:28:06;22.00;;;20.40;;
48588;SDS011;34369;51.174;6.738;2022-09-16T14:30:44;22.05;;;20.40;;
48588;SDS011;34369;51.174;6.738;2022-09-16T14:33:21;21.80;;;20.20;;
48588;SDS011;34369;51.174;6.738;2022-09-16T14:35:58;21.48;;;19.98;;
48588;SDS011;34369;51.174;6.738;2022-09-16T14:38:40;22.23;;;20.63;;
48588;SDS011;34369;51.174;6.738;2022-09-16T14:41:18;23.10;;;21.30;;
48588;SDS011;34369;51.174;6.738;2022-09-16T14:43:59;21.60;;;20.10;;
48588;SDS011;34369;51.174;6.738;2022-09-16T14:46:43;21.30;;;19.70;;
48588;SDS011;34369;51.174;6.738;2022-09-16T14:49:19;21.83;;;20.23;;
48588;SDS011;34369;51.174;6.738;2022-09-16T14:51:53;21.30;;;19.70;;
48588;SDS011;34369;51.174;6.738;2022-09-16T14:54:30;21.80;;;20.20;;
48588;SDS011;34369;51.174;6.738;2022-09-16T14:57:04;20.83;;;19.33;;
48588;SDS011;34369;51.174;6.738;2022-09-16T14:59:41;21.17;;;19.65;;
48588;SDS011;34369;51.174;6.738;2022-09-16T15:02:15;20.55;;;19.05;;
48588;SDS011;34369;51.174;6.738;2022-09-16T15:04:51;20.60;;;18.90;;
48588;SDS011;34369;51.174;6.738;2022-09-16T15:07:28;21.27;;;19.67;;
48588;SDS011;34369;51.174;6.738;2022-09-16T15:10:13;21.13;;;19.52;;
48588;SDS011;34369;51.174;6.738;2022-09-16T15:12:52;21.65;;;20.00;;
48588;SDS011;34369;51.174;6.738;2022-09-16T15:15:29;21.80;;;20.02;;
48588;SDS011;34369;51.174;6.738;2022-09-16T15:18:04;22.50;;;20.73;;
48588;SDS011;34369;51.174;6.738;2022-09-16T15:20:40;23.85;;;21.90;;
48588;SDS011;34369;51.174;6.738;2022-09-16T15:23:15;21.40;;;19.60;;
48588;SDS011;34369;51.174;6.738;2022-09-16T15:25:56;21.55;;;19.85;;
48588;SDS011;34369;51.174;6.738;2022-09-16T15:28:47;21.48;;;19.85;;
48588;SDS011;34369;51.174;6.738;2022-09-16T15:31:29;20.70;;;19.20;;
48588;SDS011;34369;51.174;6.738;2022-09-16T15:34:18;21.40;;;19.83;;
48588;SDS011;34369;51.174;6.738;2022-09-16T15:36:53;21.08;;;19.52;;
48588;SDS011;34369;51.174;6.738;2022-09-16T15:39:27;21.40;;;19.83;;
48588;SDS011;34369;51.174;6.738;2022-09-16T15:42:07;21.00;;;19.40;;
48588;SDS011;34369;51.174;6.738;2022-09-16T15:44:45;21.80;;;20.20;;
48588;SDS011;34369;51.174;6.738;2022-09-16T15:47:24;21.88;;;20.38;;
48588;SDS011;34369;51.174;6.738;2022-09-16T15:49:59;21.80;;;20.00;;